createdAt,value
2017-12-10T00:01:45.179Z,2.12
2017-12-10T00:04:12.782Z,2.28
2017-12-10T00:06:40.396Z,1.83
2017-12-10T00:09:08.025Z,2.20
2017-12-10T00:11:35.788Z,2.37
2017-12-10T00:14:03.602Z,2.60
2017-12-10T00:16:32.002Z,2.05
2017-12-10T00:18:59.585Z,1.90
2017-12-10T00:21:27.194Z,3.20
2017-12-10T00:23:55.006Z,2.22
2017-12-10T00:26:22.820Z,2.28
2017-12-10T00:28:50.620Z,3.50
2017-12-10T00:31:18.206Z,1.95
2017-12-10T00:33:45.965Z,4.10
2017-12-10T00:36:13.772Z,2.85
2017-12-10T00:38:41.393Z,1.98
2017-12-10T00:41:10.094Z,3.22
2017-12-10T00:43:37.684Z,3.50
2017-12-10T00:46:05.313Z,2.47
2017-12-10T00:48:33.793Z,2.75
2017-12-10T00:51:02.181Z,2.90
2017-12-10T00:53:29.780Z,3.00
2017-12-10T00:55:57.309Z,2.45
2017-12-10T00:58:25.073Z,2.45
2017-12-10T01:00:52.682Z,2.33
2017-12-10T01:03:20.504Z,2.60
2017-12-10T01:05:48.354Z,2.47
2017-12-10T01:08:16.176Z,3.92
2017-12-10T01:10:43.733Z,2.70
2017-12-10T01:13:11.275Z,2.72
2017-12-10T01:15:38.863Z,2.75
2017-12-10T01:18:06.505Z,2.58
2017-12-10T01:20:34.355Z,2.95
2017-12-10T01:23:01.951Z,2.83
2017-12-10T01:25:29.585Z,4.37
2017-12-10T01:27:57.380Z,2.30
2017-12-10T01:30:25.018Z,3.85
2017-12-10T01:32:52.669Z,3.03
2017-12-10T01:35:20.256Z,3.30
2017-12-10T01:37:47.819Z,6.85
2017-12-10T01:40:15.355Z,2.60
2017-12-10T01:42:42.893Z,6.93
2017-12-10T01:45:11.196Z,4.82
2017-12-10T01:47:38.794Z,3.30
2017-12-10T01:50:06.717Z,3.08
2017-12-10T01:52:34.315Z,4.85
2017-12-10T01:55:02.085Z,2.85
2017-12-10T01:57:29.654Z,3.87
2017-12-10T01:59:57.277Z,3.30
2017-12-10T02:02:25.075Z,5.43
2017-12-10T02:04:52.654Z,4.40
2017-12-10T02:07:20.442Z,3.37
2017-12-10T02:09:48.299Z,4.60
2017-12-10T02:12:15.903Z,4.35
2017-12-10T02:14:43.437Z,3.50
2017-12-10T02:17:11.005Z,4.05
2017-12-10T02:19:38.778Z,3.80
2017-12-10T02:22:06.569Z,3.78
2017-12-10T02:24:34.137Z,4.35
2017-12-10T02:27:01.934Z,4.10
2017-12-10T02:29:29.732Z,3.90
2017-12-10T02:31:57.342Z,5.53
2017-12-10T02:34:25.107Z,5.12
2017-12-10T02:36:52.956Z,4.10
2017-12-10T02:39:21.504Z,5.05
2017-12-10T02:41:49.263Z,4.35
2017-12-10T02:44:17.018Z,4.75
2017-12-10T02:46:44.620Z,4.85
2017-12-10T02:49:12.160Z,4.85
2017-12-10T02:51:39.737Z,4.82
2017-12-10T02:54:07.317Z,4.95
2017-12-10T02:56:35.106Z,4.40
2017-12-10T02:59:02.870Z,5.05
2017-12-10T03:01:31.216Z,5.30
2017-12-10T03:03:58.811Z,5.07
2017-12-10T03:06:26.819Z,4.18
2017-12-10T03:08:54.602Z,4.80
2017-12-10T03:11:22.363Z,4.87
2017-12-10T03:13:49.921Z,4.97
2017-12-10T03:16:17.490Z,5.22
2017-12-10T03:18:45.980Z,6.43
2017-12-10T03:21:13.745Z,8.32
2017-12-10T03:23:41.365Z,7.60
2017-12-10T03:26:09.189Z,5.10
2017-12-10T03:28:36.961Z,5.50
2017-12-10T03:31:04.806Z,4.60
2017-12-10T03:33:32.356Z,4.62
2017-12-10T03:36:01.064Z,4.10
2017-12-10T03:38:29.273Z,5.15
2017-12-10T03:40:57.043Z,4.85
2017-12-10T03:43:24.595Z,5.07
2017-12-10T03:45:52.430Z,4.72
2017-12-10T03:48:20.212Z,4.35
2017-12-10T03:50:47.781Z,3.95
2017-12-10T03:53:16.328Z,6.97
2017-12-10T03:55:43.880Z,4.25
2017-12-10T03:58:11.666Z,4.57
2017-12-10T04:00:39.289Z,5.53
2017-12-10T04:03:07.079Z,4.50
2017-12-10T04:05:34.715Z,4.55
2017-12-10T04:08:02.351Z,4.85
2017-12-10T04:10:29.923Z,4.25
2017-12-10T04:12:57.738Z,4.68
2017-12-10T04:15:25.383Z,5.10
2017-12-10T04:17:53.158Z,4.28
2017-12-10T04:20:20.917Z,4.28
2017-12-10T04:22:49.380Z,3.80
2017-12-10T04:25:17.136Z,4.05
2017-12-10T04:27:44.666Z,3.08
2017-12-10T04:30:12.394Z,4.30
2017-12-10T04:32:39.975Z,3.97
2017-12-10T04:35:07.541Z,5.50
2017-12-10T04:37:34.477Z,3.62
2017-12-10T04:40:04.159Z,2.87
2017-12-10T04:42:34.912Z,3.03
2017-12-10T04:45:02.585Z,3.25
2017-12-10T04:47:30.192Z,3.08
2017-12-10T04:49:57.816Z,4.00
2017-12-10T04:52:25.603Z,3.20
2017-12-10T04:54:53.219Z,3.20
2017-12-10T04:57:20.842Z,5.07
2017-12-10T04:59:48.658Z,3.33
2017-12-10T05:02:16.361Z,4.75
2017-12-10T05:04:43.917Z,3.87
2017-12-10T05:07:11.676Z,4.50
2017-12-10T05:09:39.318Z,4.90
2017-12-10T05:12:06.918Z,4.68
2017-12-10T05:14:34.485Z,3.87
2017-12-10T05:17:02.114Z,6.80
2017-12-10T05:19:29.869Z,4.05
2017-12-10T05:21:57.394Z,6.43
2017-12-10T05:24:25.163Z,4.50
2017-12-10T05:26:52.925Z,4.93
2017-12-10T05:29:20.745Z,5.03
2017-12-10T05:31:48.492Z,6.35
2017-12-10T05:34:16.908Z,5.75
2017-12-10T05:36:44.965Z,6.22
2017-12-10T05:39:12.564Z,5.97
2017-12-10T05:41:40.150Z,6.05
2017-12-10T05:44:08.115Z,6.40
2017-12-10T05:46:35.758Z,5.65
2017-12-10T05:49:03.649Z,5.85
2017-12-10T05:51:31.870Z,5.97
2017-12-10T05:53:59.685Z,4.20
2017-12-10T05:56:28.006Z,5.22
2017-12-10T05:58:56.321Z,5.12
2017-12-10T06:01:24.014Z,7.20
2017-12-10T06:03:51.611Z,6.50
2017-12-10T06:06:19.394Z,6.07
2017-12-10T06:08:47.015Z,3.95
2017-12-10T06:11:14.617Z,7.47
2017-12-10T06:13:42.219Z,6.28
2017-12-10T06:16:09.976Z,7.12
2017-12-10T06:18:37.740Z,6.57
2017-12-10T06:21:05.433Z,8.32
2017-12-10T06:23:33.029Z,7.95
2017-12-10T06:26:00.580Z,6.30
2017-12-10T06:28:28.376Z,9.40
2017-12-10T06:30:55.970Z,5.93
2017-12-10T06:33:23.574Z,5.97
2017-12-10T06:35:51.167Z,6.40
2017-12-10T06:38:18.898Z,6.90
2017-12-10T06:40:46.495Z,8.73
2017-12-10T06:43:14.269Z,12.93
2017-12-10T06:45:42.073Z,7.00
2017-12-10T06:48:09.846Z,8.32
2017-12-10T06:50:37.473Z,10.63
2017-12-10T06:53:05.057Z,7.05
2017-12-10T06:55:32.674Z,8.38
2017-12-10T06:58:00.242Z,11.88
2017-12-10T07:00:27.868Z,9.30
2017-12-10T07:02:56.521Z,8.75
2017-12-10T07:05:24.595Z,7.60
2017-12-10T07:07:52.215Z,8.48
2017-12-10T07:10:19.784Z,9.48
2017-12-10T07:12:47.351Z,7.65
2017-12-10T07:15:14.944Z,8.20
2017-12-10T07:17:42.729Z,10.02
2017-12-10T07:20:10.537Z,8.50
2017-12-10T07:22:38.150Z,8.70
2017-12-10T07:25:06.510Z,8.32
2017-12-10T07:27:34.370Z,9.15
2017-12-10T07:30:04.885Z,9.52
2017-12-10T07:32:35.317Z,8.00
2017-12-10T07:35:03.090Z,8.20
2017-12-10T07:37:30.685Z,7.90
2017-12-10T07:39:58.454Z,9.35
2017-12-10T07:42:26.264Z,14.45
2017-12-10T07:44:53.834Z,11.38
2017-12-10T07:47:22.046Z,11.50
2017-12-10T07:49:49.793Z,12.00
2017-12-10T07:52:17.385Z,11.23
2017-12-10T07:54:44.933Z,10.10
2017-12-10T07:57:12.550Z,15.80
2017-12-10T07:59:40.235Z,10.82
2017-12-10T08:02:07.965Z,12.55
2017-12-10T08:04:35.568Z,11.40
2017-12-10T08:07:03.359Z,11.38
2017-12-10T08:09:31.002Z,13.25
2017-12-10T08:11:58.789Z,11.57
2017-12-10T08:14:26.385Z,10.07
2017-12-10T08:16:54.060Z,8.30
2017-12-10T08:19:21.850Z,9.57
2017-12-10T08:21:49.460Z,10.80
2017-12-10T08:24:17.050Z,11.15
2017-12-10T08:26:44.657Z,11.82
2017-12-10T08:29:12.454Z,11.07
2017-12-10T08:31:40.066Z,10.27
2017-12-10T08:34:07.884Z,10.80
2017-12-10T08:36:35.510Z,11.05
2017-12-10T08:39:03.547Z,11.93
2017-12-10T08:41:31.188Z,10.00
2017-12-10T08:43:58.803Z,12.98
2017-12-10T08:46:26.434Z,13.68
2017-12-10T08:48:54.146Z,14.30
2017-12-10T08:51:21.760Z,13.88
2017-12-10T08:53:49.424Z,9.75
2017-12-10T08:56:17.070Z,10.70
2017-12-10T08:58:44.705Z,11.80
2017-12-10T09:01:12.417Z,11.55
2017-12-10T09:03:41.180Z,7.82
2017-12-10T09:06:09.832Z,8.82
2017-12-10T09:08:38.142Z,11.50
2017-12-10T09:11:06.707Z,11.38
2017-12-10T09:13:35.009Z,7.85
2017-12-10T09:16:03.123Z,8.40
2017-12-10T09:18:30.878Z,7.95
2017-12-10T09:20:58.611Z,7.80
2017-12-10T09:23:26.751Z,19.60
2017-12-10T09:25:54.544Z,9.25
2017-12-10T09:28:22.065Z,8.70
2017-12-10T09:30:49.633Z,9.68
2017-12-10T09:33:17.248Z,11.32
2017-12-10T09:35:44.815Z,12.45
2017-12-10T09:38:12.573Z,8.75
2017-12-10T09:40:40.144Z,9.15
2017-12-10T09:43:07.731Z,7.72
2017-12-10T09:45:35.336Z,10.20
2017-12-10T09:48:02.938Z,9.32
2017-12-10T09:50:30.556Z,11.23
2017-12-10T09:52:58.120Z,11.05
2017-12-10T09:55:25.681Z,9.97
2017-12-10T09:57:53.355Z,11.63
2017-12-10T10:00:20.982Z,12.63
2017-12-10T10:02:48.541Z,14.00
2017-12-10T10:05:16.107Z,11.00
2017-12-10T10:07:44.442Z,14.50
2017-12-10T10:10:12.252Z,11.17
2017-12-10T10:12:40.060Z,12.83
2017-12-10T10:15:07.748Z,12.50
2017-12-10T10:17:35.560Z,11.30
2017-12-10T10:20:03.147Z,7.80
2017-12-10T10:22:31.143Z,7.70
2017-12-10T10:24:58.815Z,5.83
2017-12-10T10:27:26.603Z,8.90
2017-12-10T10:29:54.260Z,8.40
2017-12-10T10:32:22.602Z,4.57
2017-12-10T10:34:50.250Z,7.28
2017-12-10T10:37:18.084Z,6.35
2017-12-10T10:39:45.756Z,5.40
2017-12-10T10:42:14.129Z,4.65
2017-12-10T10:44:42.552Z,4.60
2017-12-10T10:47:10.293Z,5.40
2017-12-10T10:49:38.199Z,6.57
2017-12-10T10:52:05.789Z,4.80
2017-12-10T10:54:34.120Z,5.53
2017-12-10T10:57:02.527Z,6.05
2017-12-10T10:59:30.148Z,5.65
2017-12-10T11:01:57.766Z,5.20
2017-12-10T11:04:25.470Z,6.97
2017-12-10T11:06:53.235Z,8.77
2017-12-10T11:09:20.901Z,5.12
2017-12-10T11:11:48.678Z,5.43
2017-12-10T11:14:16.526Z,7.25
2017-12-10T11:16:45.145Z,7.28
2017-12-10T11:19:14.049Z,6.62
2017-12-10T11:21:41.631Z,7.37
2017-12-10T11:24:09.454Z,9.00
2017-12-10T11:26:37.012Z,7.90
2017-12-10T11:29:04.622Z,7.62
2017-12-10T11:31:32.249Z,11.70
2017-12-10T11:34:00.069Z,7.10
2017-12-10T11:36:27.864Z,7.60
2017-12-10T11:38:55.725Z,8.95
2017-12-10T11:41:24.938Z,8.98
2017-12-10T11:43:56.710Z,8.25
2017-12-10T11:46:27.061Z,9.95
2017-12-10T11:48:56.003Z,6.22
2017-12-10T11:51:26.468Z,6.85
2017-12-10T11:53:58.586Z,6.87
2017-12-10T11:56:26.493Z,5.60
2017-12-10T11:58:54.316Z,4.95
2017-12-10T12:01:21.906Z,10.73
2017-12-10T12:03:50.415Z,5.15
2017-12-10T12:06:18.118Z,6.32
2017-12-10T12:08:45.744Z,7.28
2017-12-10T12:11:13.355Z,9.63
2017-12-10T12:13:41.188Z,6.20
2017-12-10T12:16:09.381Z,6.87
2017-12-10T12:18:37.151Z,6.65
2017-12-10T12:21:04.737Z,6.22
2017-12-10T12:23:32.374Z,6.75
2017-12-10T12:26:00.510Z,9.27
2017-12-10T12:28:28.749Z,6.07
2017-12-10T12:30:56.421Z,6.40
2017-12-10T12:33:23.955Z,4.45
2017-12-10T12:35:51.547Z,7.37
2017-12-10T12:38:19.189Z,4.55
2017-12-10T12:40:46.847Z,10.52
2017-12-10T12:43:14.647Z,6.10
2017-12-10T12:45:42.316Z,7.85
2017-12-10T12:48:09.872Z,4.07
2017-12-10T12:50:37.484Z,5.03
2017-12-10T12:53:05.084Z,7.82
2017-12-10T12:55:32.652Z,5.07
2017-12-10T12:58:00.326Z,6.65
2017-12-10T13:00:27.913Z,8.15
2017-12-10T13:02:55.532Z,6.72
2017-12-10T13:05:23.345Z,9.13
2017-12-10T13:07:51.613Z,8.68
2017-12-10T13:10:19.206Z,9.98
2017-12-10T13:12:46.792Z,10.63
2017-12-10T13:15:14.384Z,11.10
2017-12-10T13:17:42.178Z,11.88
2017-12-10T13:20:09.744Z,11.02
2017-12-10T13:22:37.335Z,13.20
2017-12-10T13:25:04.975Z,11.02
2017-12-10T13:27:32.578Z,10.85
2017-12-10T13:30:00.614Z,11.60
2017-12-10T13:32:28.439Z,14.40
2017-12-10T13:34:56.315Z,11.37
2017-12-10T13:37:24.130Z,14.90
2017-12-10T13:39:51.797Z,17.83
2017-12-10T13:42:20.706Z,14.23
2017-12-10T13:44:48.634Z,17.98
2017-12-10T13:47:16.872Z,18.73
2017-12-10T13:49:44.749Z,17.70
2017-12-10T13:52:12.736Z,18.27
2017-12-10T13:54:40.312Z,19.80
2017-12-10T13:57:07.986Z,25.13
2017-12-10T13:59:35.815Z,17.03
2017-12-10T14:02:03.501Z,20.52
2017-12-10T14:04:31.241Z,23.40
2017-12-10T14:06:58.816Z,23.27
2017-12-10T14:09:26.649Z,22.00
2017-12-10T14:11:55.135Z,18.67
2017-12-10T14:14:22.814Z,19.02
2017-12-10T14:16:50.505Z,18.70
2017-12-10T14:19:18.061Z,17.02
2017-12-10T14:21:45.910Z,18.92
2017-12-10T14:24:13.491Z,20.37
2017-12-10T14:26:41.052Z,19.77
2017-12-10T14:29:09.452Z,20.42
2017-12-10T14:31:37.083Z,16.37
2017-12-10T14:34:04.711Z,16.23
2017-12-10T14:36:32.494Z,17.23
2017-12-10T14:39:00.320Z,16.95
2017-12-10T14:41:28.891Z,15.57
2017-12-10T14:43:56.734Z,12.02
2017-12-10T14:46:25.269Z,21.95
2017-12-10T14:48:52.917Z,15.35
2017-12-10T14:51:20.521Z,14.57
2017-12-10T14:53:48.133Z,19.33
2017-12-10T14:56:15.856Z,16.40
2017-12-10T14:58:44.309Z,14.43
2017-12-10T15:01:12.085Z,21.30
2017-12-10T15:03:40.013Z,16.37
2017-12-10T15:06:11.343Z,48.50
2017-12-10T15:08:38.921Z,62.78
2017-12-10T15:11:07.793Z,71.93
2017-12-10T15:13:35.549Z,82.70
2017-12-10T15:16:04.446Z,66.95
2017-12-10T15:18:33.084Z,62.97
2017-12-10T15:21:00.867Z,71.25
2017-12-10T15:23:28.789Z,61.47
2017-12-10T15:25:57.455Z,62.83
2017-12-10T15:28:25.697Z,76.37
2017-12-10T15:30:53.310Z,71.03
2017-12-10T15:33:21.642Z,89.53
2017-12-10T15:35:49.370Z,107.82
2017-12-10T15:38:16.965Z,123.85
2017-12-10T15:40:44.693Z,124.35
2017-12-10T15:43:13.326Z,116.37
2017-12-10T15:45:42.290Z,112.95
2017-12-10T15:48:10.032Z,107.30
2017-12-10T15:50:37.694Z,139.18
2017-12-10T15:53:05.826Z,223.20
2017-12-10T15:55:34.312Z,209.57
2017-12-10T15:58:02.370Z,220.05
2017-12-10T16:00:30.555Z,175.38
2017-12-10T16:03:00.841Z,162.12
2017-12-10T16:05:28.775Z,178.32
2017-12-10T16:07:57.349Z,139.18
2017-12-10T16:10:25.669Z,161.40
2017-12-10T16:12:53.712Z,161.07
2017-12-10T16:15:24.238Z,157.27
2017-12-10T16:17:54.679Z,162.18
2017-12-10T16:20:24.126Z,170.98
2017-12-10T16:22:52.791Z,188.48
2017-12-10T16:25:22.216Z,169.57
2017-12-10T16:27:50.927Z,191.07
2017-12-10T16:30:20.424Z,190.95
2017-12-10T16:32:48.085Z,180.98
2017-12-10T16:35:15.936Z,174.70
2017-12-10T16:37:43.634Z,147.62
2017-12-10T16:40:11.643Z,118.07
2017-12-10T16:42:39.219Z,117.50
2017-12-10T16:45:06.939Z,112.93
2017-12-10T16:47:34.545Z,109.85
2017-12-10T16:50:02.331Z,91.05
2017-12-10T16:52:29.941Z,93.97
2017-12-10T16:54:57.929Z,107.00
2017-12-10T16:57:25.520Z,99.68
2017-12-10T16:59:53.159Z,126.45
2017-12-10T17:02:21.031Z,121.95
2017-12-10T17:04:53.345Z,116.35
2017-12-10T17:07:20.959Z,79.28
2017-12-10T17:09:49.214Z,80.97
2017-12-10T17:12:16.818Z,114.15
2017-12-10T17:14:44.423Z,165.32
2017-12-10T17:17:12.586Z,151.70
2017-12-10T17:19:40.148Z,204.87
2017-12-10T17:22:07.794Z,283.85
2017-12-10T17:24:37.028Z,200.82
2017-12-10T17:27:04.634Z,143.02
2017-12-10T17:29:32.538Z,131.07
2017-12-10T17:32:00.250Z,122.62
2017-12-10T17:34:28.100Z,123.43
2017-12-10T17:36:57.226Z,121.13
2017-12-10T17:39:25.707Z,119.07
2017-12-10T17:41:53.385Z,114.65
2017-12-10T17:44:22.095Z,118.15
2017-12-10T17:46:50.524Z,107.75
2017-12-10T17:49:18.606Z,118.15
2017-12-10T17:51:46.482Z,111.32
2017-12-10T17:54:15.147Z,109.07
2017-12-10T17:56:44.091Z,95.38
2017-12-10T17:59:13.442Z,98.60
2017-12-10T18:01:42.235Z,111.18
2017-12-10T18:04:10.158Z,81.30
2017-12-10T18:06:37.757Z,109.47
2017-12-10T18:09:05.385Z,94.62
2017-12-10T18:11:33.582Z,123.82
2017-12-10T18:14:01.347Z,138.18
2017-12-10T18:16:29.018Z,138.43
2017-12-10T18:18:56.876Z,148.23
2017-12-10T18:21:24.434Z,102.28
2017-12-10T18:23:52.158Z,123.53
2017-12-10T18:26:20.026Z,122.28
2017-12-10T18:28:47.648Z,131.70
2017-12-10T18:31:15.266Z,140.85
2017-12-10T18:33:43.090Z,101.82
2017-12-10T18:36:10.686Z,88.60
2017-12-10T18:38:38.678Z,78.68
2017-12-10T18:41:06.303Z,89.00
2017-12-10T18:43:33.906Z,99.25
2017-12-10T18:46:01.491Z,100.55
2017-12-10T18:48:29.065Z,99.43
2017-12-10T18:50:57.254Z,95.15
2017-12-10T18:53:24.974Z,54.40
2017-12-10T18:55:52.586Z,59.65
2017-12-10T18:58:20.611Z,51.22
2017-12-10T19:00:48.460Z,64.97
2017-12-10T19:03:16.524Z,73.97
2017-12-10T19:05:44.165Z,75.32
2017-12-10T19:08:11.908Z,89.22
2017-12-10T19:10:39.634Z,56.58
2017-12-10T19:13:08.038Z,81.70
2017-12-10T19:15:35.825Z,99.03
2017-12-10T19:18:03.430Z,82.18
2017-12-10T19:20:31.769Z,80.78
2017-12-10T19:22:59.418Z,87.10
2017-12-10T19:25:27.256Z,105.70
2017-12-10T19:27:54.840Z,131.02
2017-12-10T19:30:22.718Z,117.35
2017-12-10T19:32:50.516Z,110.70
2017-12-10T19:35:18.496Z,128.70
2017-12-10T19:37:47.312Z,115.95
2017-12-10T19:40:15.506Z,122.65
2017-12-10T19:42:45.243Z,119.22
2017-12-10T19:45:13.684Z,107.90
2017-12-10T19:47:41.555Z,81.50
2017-12-10T19:50:09.344Z,138.90
2017-12-10T19:52:36.958Z,119.05
2017-12-10T19:55:04.596Z,68.25
2017-12-10T19:57:32.270Z,70.57
2017-12-10T20:00:00.062Z,94.70
2017-12-10T20:02:27.701Z,79.30
2017-12-10T20:04:55.494Z,104.68
2017-12-10T20:07:23.997Z,153.02
2017-12-10T20:09:51.778Z,105.03
2017-12-10T20:12:19.529Z,86.28
2017-12-10T20:14:47.343Z,101.68
2017-12-10T20:17:15.042Z,70.90
2017-12-10T20:19:42.814Z,77.18
2017-12-10T20:22:10.620Z,69.37
2017-12-10T20:24:38.308Z,98.78
2017-12-10T20:27:05.870Z,92.85
2017-12-10T20:29:34.324Z,99.55
2017-12-10T20:32:01.953Z,111.93
2017-12-10T20:34:29.697Z,147.00
2017-12-10T20:36:57.300Z,172.35
2017-12-10T20:39:24.942Z,155.50
2017-12-10T20:41:52.550Z,201.25
2017-12-10T20:44:20.331Z,176.55
2017-12-10T20:46:47.967Z,156.15
2017-12-10T20:49:15.635Z,160.18
2017-12-10T20:51:44.182Z,159.40
2017-12-10T20:54:11.881Z,126.55
2017-12-10T20:56:39.444Z,133.45
2017-12-10T20:59:06.980Z,95.03
2017-12-10T21:01:34.546Z,136.65
2017-12-10T21:04:02.415Z,134.00
2017-12-10T21:06:29.970Z,132.25
2017-12-10T21:08:57.574Z,106.25
2017-12-10T21:11:25.163Z,136.02
2017-12-10T21:13:52.726Z,126.05
2017-12-10T21:16:20.336Z,118.45
2017-12-10T21:18:49.634Z,113.80
2017-12-10T21:21:17.398Z,130.85
2017-12-10T21:23:44.984Z,115.45
2017-12-10T21:26:12.799Z,98.97
2017-12-10T21:28:40.596Z,87.62
2017-12-10T21:31:08.756Z,121.32
2017-12-10T21:33:36.327Z,102.68
2017-12-10T21:36:03.904Z,111.53
2017-12-10T21:38:31.568Z,123.75
2017-12-10T21:40:59.123Z,111.22
2017-12-10T21:43:26.686Z,110.47
2017-12-10T21:45:54.307Z,186.15
2017-12-10T21:48:21.873Z,212.50
2017-12-10T21:50:49.455Z,237.85
2017-12-10T21:53:17.070Z,166.48
2017-12-10T21:55:45.494Z,144.35
2017-12-10T21:58:13.122Z,174.20
2017-12-10T22:00:40.765Z,219.65
2017-12-10T22:03:08.314Z,227.02
2017-12-10T22:05:36.456Z,231.73
2017-12-10T22:08:04.094Z,234.35
2017-12-10T22:10:31.876Z,224.90
2017-12-10T22:12:59.465Z,230.18
2017-12-10T22:15:27.099Z,244.00
2017-12-10T22:17:54.900Z,244.43
2017-12-10T22:20:22.606Z,271.77
2017-12-10T22:22:50.178Z,280.90
2017-12-10T22:25:17.713Z,293.35
2017-12-10T22:27:45.251Z,295.05
2017-12-10T22:30:12.887Z,293.55
2017-12-10T22:32:40.480Z,295.17
2017-12-10T22:35:08.381Z,288.23
2017-12-10T22:37:36.721Z,276.50
2017-12-10T22:40:04.283Z,242.18
2017-12-10T22:42:32.168Z,244.27
2017-12-10T22:44:59.808Z,204.30
2017-12-10T22:47:27.334Z,224.80
2017-12-10T22:49:54.858Z,212.80
2017-12-10T22:52:22.481Z,204.18
2017-12-10T22:54:50.274Z,224.02
2017-12-10T22:57:17.816Z,202.10
2017-12-10T22:59:45.378Z,186.18
2017-12-10T23:02:13.068Z,182.12
2017-12-10T23:04:40.588Z,192.77
2017-12-10T23:07:08.462Z,187.95
2017-12-10T23:09:36.020Z,184.05
2017-12-10T23:12:03.827Z,186.18
2017-12-10T23:14:42.210Z,195.25
2017-12-10T23:17:09.745Z,213.32
2017-12-10T23:19:37.281Z,216.75
2017-12-10T23:22:04.845Z,202.07
2017-12-10T23:24:32.447Z,203.60
2017-12-10T23:26:59.975Z,218.77
2017-12-10T23:29:27.555Z,194.98
2017-12-10T23:31:55.210Z,149.43
2017-12-10T23:34:22.763Z,187.50
2017-12-10T23:36:50.566Z,167.35
2017-12-10T23:39:18.125Z,194.87
2017-12-10T23:41:45.674Z,193.35
2017-12-10T23:44:13.228Z,203.88
2017-12-10T23:46:40.877Z,196.32
2017-12-10T23:49:08.425Z,163.73
2017-12-10T23:51:35.944Z,134.15
2017-12-10T23:54:03.759Z,140.35
2017-12-10T23:56:31.290Z,123.93
2017-12-10T23:58:58.837Z,121.65
